Graniteville, Vermont
Current Conditions -  °F | °C
As of 5:51 AM on Monday 20 Oct 2014 (Local Time) from KMPV Reporting Station
Overcast Overcast  
Wind Chill: 34°   Ceiling: 3400
Heat Index: 34°   Visibility: 10mi
Dew Point: 26°   Wind: 3mph
Humidity: 73%   Direction: 140°SE
Pressure: 30"   Gusts: NA
Location:  44.15°N, 72.49°W
Report Text: KMPV 200951Z AUTO 14003KT 10SM OVC034 01/M03 A3000 RMK AO2 SLP172 T00111033 $
Loading
Personal Weather Stations






























Interactive Weather Map
Tropical Storm Tracking
New forecast layout! Learn more

10-Day Weather Forecast

Advertisements
Track Severe Weather on mobile